sensor_id;sensor_type;location;lat;lon;timestamp;temperature;humidity
21335;DHT22;10826;52.536;13.432;2022-09-16T00:00:44;17.30;50.80
21335;DHT22;10826;52.536;13.432;2022-09-16T00:03:11;17.30;50.70
21335;DHT22;10826;52.536;13.432;2022-09-16T00:05:45;17.20;50.50
21335;DHT22;10826;52.536;13.432;2022-09-16T00:08:18;17.20;50.50
21335;DHT22;10826;52.536;13.432;2022-09-16T00:10:47;17.10;50.50
21335;DHT22;10826;52.536;13.432;2022-09-16T00:13:14;17.10;50.50
21335;DHT22;10826;52.536;13.432;2022-09-16T00:15:45;17.10;50.50
21335;DHT22;10826;52.536;13.432;2022-09-16T00:18:16;17.10;50.50
21335;DHT22;10826;52.536;13.432;2022-09-16T00:20:48;17.00;50.40
21335;DHT22;10826;52.536;13.432;2022-09-16T00:23:15;17.00;50.40
21335;DHT22;10826;52.536;13.432;2022-09-16T00:25:48;17.00;50.40
21335;DHT22;10826;52.536;13.432;2022-09-16T00:28:16;16.90;50.40
21335;DHT22;10826;52.536;13.432;2022-09-16T00:30:43;16.90;50.40
21335;DHT22;10826;52.536;13.432;2022-09-16T00:33:10;16.80;50.30
21335;DHT22;10826;52.536;13.432;2022-09-16T00:35:40;16.80;50.30
21335;DHT22;10826;52.536;13.432;2022-09-16T00:38:07;16.80;50.30
21335;DHT22;10826;52.536;13.432;2022-09-16T00:40:33;16.80;50.30
21335;DHT22;10826;52.536;13.432;2022-09-16T00:43:00;16.70;50.30
21335;DHT22;10826;52.536;13.432;2022-09-16T00:45:26;16.70;50.40
21335;DHT22;10826;52.536;13.432;2022-09-16T00:48:02;16.70;50.30
21335;DHT22;10826;52.536;13.432;2022-09-16T00:50:44;16.70;50.30
21335;DHT22;10826;52.536;13.432;2022-09-16T00:54:22;16.70;50.30
21335;DHT22;10826;52.536;13.432;2022-09-16T00:56:24;16.60;50.20
21335;DHT22;10826;52.536;13.432;2022-09-16T01:01:54;16.60;50.40
21335;DHT22;10826;52.536;13.432;2022-09-16T01:04:31;16.60;50.60
21335;DHT22;10826;52.536;13.432;2022-09-16T01:07:02;16.50;50.60
21335;DHT22;10826;52.536;13.432;2022-09-16T01:09:31;16.50;50.80
21335;DHT22;10826;52.536;13.432;2022-09-16T01:12:00;16.50;50.80
21335;DHT22;10826;52.536;13.432;2022-09-16T01:14:29;16.50;50.90
21335;DHT22;10826;52.536;13.432;2022-09-16T01:20:50;16.40;51.00
21335;DHT22;10826;52.536;13.432;2022-09-16T01:33:05;16.40;51.60
21335;DHT22;10826;52.536;13.432;2022-09-16T01:39:03;16.30;52.00
21335;DHT22;10826;52.536;13.432;2022-09-16T01:42:01;16.30;52.40
21335;DHT22;10826;52.536;13.432;2022-09-16T01:44:49;16.20;52.40
21335;DHT22;10826;52.536;13.432;2022-09-16T01:58:53;16.20;53.10
21335;DHT22;10826;52.536;13.432;2022-09-16T02:04:22;16.10;53.40
21335;DHT22;10826;52.536;13.432;2022-09-16T02:06:55;16.10;53.40
21335;DHT22;10826;52.536;13.432;2022-09-16T02:09:50;16.10;53.60
21335;DHT22;10826;52.536;13.432;2022-09-16T02:12:24;16.10;53.70
21335;DHT22;10826;52.536;13.432;2022-09-16T02:15:02;16.10;53.80
21335;DHT22;10826;52.536;13.432;2022-09-16T02:17:35;16.10;53.90
21335;DHT22;10826;52.536;13.432;2022-09-16T02:20:12;16.10;54.00
21335;DHT22;10826;52.536;13.432;2022-09-16T02:22:50;16.10;54.10
21335;DHT22;10826;52.536;13.432;2022-09-16T02:25:25;16.10;55.00
21335;DHT22;10826;52.536;13.432;2022-09-16T02:27:54;16.00;54.20
21335;DHT22;10826;52.536;13.432;2022-09-16T02:30:24;16.00;54.30
21335;DHT22;10826;52.536;13.432;2022-09-16T02:33:00;16.00;54.50
21335;DHT22;10826;52.536;13.432;2022-09-16T02:35:34;16.00;54.60
21335;DHT22;10826;52.536;13.432;2022-09-16T02:38:10;16.00;54.70
21335;DHT22;10826;52.536;13.432;2022-09-16T02:40:51;15.90;54.70
21335;DHT22;10826;52.536;13.432;2022-09-16T02:43:21;16.00;54.80
21335;DHT22;10826;52.536;13.432;2022-09-16T02:48:47;15.90;55.10
21335;DHT22;10826;52.536;13.432;2022-09-16T02:57:04;15.90;55.30
21335;DHT22;10826;52.536;13.432;2022-09-16T02:59:31;15.80;55.40
21335;DHT22;10826;52.536;13.432;2022-09-16T03:01:58;15.80;55.40
21335;DHT22;10826;52.536;13.432;2022-09-16T03:04:26;15.80;55.50
21335;DHT22;10826;52.536;13.432;2022-09-16T03:06:53;15.80;55.60
21335;DHT22;10826;52.536;13.432;2022-09-16T03:09:19;15.80;55.60
21335;DHT22;10826;52.536;13.432;2022-09-16T03:12:06;15.80;55.80
21335;DHT22;10826;52.536;13.432;2022-09-16T03:15:00;15.70;55.80
21335;DHT22;10826;52.536;13.432;2022-09-16T03:27:07;15.70;56.10
21335;DHT22;10826;52.536;13.432;2022-09-16T03:29:52;15.70;56.10
21335;DHT22;10826;52.536;13.432;2022-09-16T03:32:38;15.70;56.20
21335;DHT22;10826;52.536;13.432;2022-09-16T03:38:00;15.60;56.10
21335;DHT22;10826;52.536;13.432;2022-09-16T03:40:28;15.70;56.30
21335;DHT22;10826;52.536;13.432;2022-09-16T03:42:57;15.70;56.30
21335;DHT22;10826;52.536;13.432;2022-09-16T03:45:23;15.70;56.30
21335;DHT22;10826;52.536;13.432;2022-09-16T03:47:50;15.80;56.30
21335;DHT22;10826;52.536;13.432;2022-09-16T03:50:18;15.80;56.10
21335;DHT22;10826;52.536;13.432;2022-09-16T03:52:45;15.80;56.10
21335;DHT22;10826;52.536;13.432;2022-09-16T03:55:12;15.80;56.00
21335;DHT22;10826;52.536;13.432;2022-09-16T03:57:38;15.80;56.00
21335;DHT22;10826;52.536;13.432;2022-09-16T04:00:06;15.80;56.00
21335;DHT22;10826;52.536;13.432;2022-09-16T04:02:33;15.80;56.00
21335;DHT22;10826;52.536;13.432;2022-09-16T04:05:00;15.80;55.90
21335;DHT22;10826;52.536;13.432;2022-09-16T04:07:27;15.90;56.00
21335;DHT22;10826;52.536;13.432;2022-09-16T04:09:53;15.90;56.00
21335;DHT22;10826;52.536;13.432;2022-09-16T04:12:19;15.90;55.90
21335;DHT22;10826;52.536;13.432;2022-09-16T04:14:44;15.90;55.80
21335;DHT22;10826;52.536;13.432;2022-09-16T04:17:11;15.90;55.70
21335;DHT22;10826;52.536;13.432;2022-09-16T04:19:37;16.00;55.50
21335;DHT22;10826;52.536;13.432;2022-09-16T04:22:03;16.00;55.40
21335;DHT22;10826;52.536;13.432;2022-09-16T04:24:29;16.00;55.30
21335;DHT22;10826;52.536;13.432;2022-09-16T04:26:55;16.00;55.30
21335;DHT22;10826;52.536;13.432;2022-09-16T04:29:21;16.00;55.30
21335;DHT22;10826;52.536;13.432;2022-09-16T04:31:47;16.00;55.30
21335;DHT22;10826;52.536;13.432;2022-09-16T04:34:13;15.90;55.30
21335;DHT22;10826;52.536;13.432;2022-09-16T04:36:39;15.90;55.40
21335;DHT22;10826;52.536;13.432;2022-09-16T04:39:05;15.90;55.50
21335;DHT22;10826;52.536;13.432;2022-09-16T04:41:31;15.90;55.50
21335;DHT22;10826;52.536;13.432;2022-09-16T04:43:58;15.90;55.50
21335;DHT22;10826;52.536;13.432;2022-09-16T04:46:26;15.90;55.50
21335;DHT22;10826;52.536;13.432;2022-09-16T04:48:55;15.80;55.40
21335;DHT22;10826;52.536;13.432;2022-09-16T04:51:22;15.80;55.40
21335;DHT22;10826;52.536;13.432;2022-09-16T04:53:55;15.80;55.40
21335;DHT22;10826;52.536;13.432;2022-09-16T04:56:25;15.80;55.40
21335;DHT22;10826;52.536;13.432;2022-09-16T04:58:55;15.80;55.40
21335;DHT22;10826;52.536;13.432;2022-09-16T05:01:25;15.80;55.40
21335;DHT22;10826;52.536;13.432;2022-09-16T05:03:57;15.80;55.30
21335;DHT22;10826;52.536;13.432;2022-09-16T05:06:32;15.80;55.20
21335;DHT22;10826;52.536;13.432;2022-09-16T05:09:01;15.90;55.30
21335;DHT22;10826;52.536;13.432;2022-09-16T05:11:31;15.90;55.30
21335;DHT22;10826;52.536;13.432;2022-09-16T05:14:00;15.90;55.20
21335;DHT22;10826;52.536;13.432;2022-09-16T05:16:28;15.90;55.20
21335;DHT22;10826;52.536;13.432;2022-09-16T05:18:56;15.90;55.10
21335;DHT22;10826;52.536;13.432;2022-09-16T05:21:26;15.90;55.10
21335;DHT22;10826;52.536;13.432;2022-09-16T05:23:53;15.90;55.00
21335;DHT22;10826;52.536;13.432;2022-09-16T05:26:26;15.90;55.00
21335;DHT22;10826;52.536;13.432;2022-09-16T05:28:53;15.90;55.00
21335;DHT22;10826;52.536;13.432;2022-09-16T05:31:25;15.90;55.10
21335;DHT22;10826;52.536;13.432;2022-09-16T05:34:00;15.90;55.00
21335;DHT22;10826;52.536;13.432;2022-09-16T05:36:30;16.00;55.00
21335;DHT22;10826;52.536;13.432;2022-09-16T05:38:58;16.00;55.60
21335;DHT22;10826;52.536;13.432;2022-09-16T05:41:24;16.00;55.00
21335;DHT22;10826;52.536;13.432;2022-09-16T05:43:50;16.10;54.90
21335;DHT22;10826;52.536;13.432;2022-09-16T05:46:18;16.10;54.80
21335;DHT22;10826;52.536;13.432;2022-09-16T05:48:47;16.20;54.60
21335;DHT22;10826;52.536;13.432;2022-09-16T05:51:16;16.30;54.40
21335;DHT22;10826;52.536;13.432;2022-09-16T05:53:44;16.30;54.30
21335;DHT22;10826;52.536;13.432;2022-09-16T05:56:14;16.40;54.00
21335;DHT22;10826;52.536;13.432;2022-09-16T05:58:43;16.50;53.70
21335;DHT22;10826;52.536;13.432;2022-09-16T06:01:17;16.50;53.50
21335;DHT22;10826;52.536;13.432;2022-09-16T06:03:49;16.60;53.30
21335;DHT22;10826;52.536;13.432;2022-09-16T06:09:14;16.70;52.80
21335;DHT22;10826;52.536;13.432;2022-09-16T06:11:47;16.70;52.80
21335;DHT22;10826;52.536;13.432;2022-09-16T06:14:16;16.70;53.40
21335;DHT22;10826;52.536;13.432;2022-09-16T06:16:44;16.70;52.60
21335;DHT22;10826;52.536;13.432;2022-09-16T06:19:12;16.80;52.50
21335;DHT22;10826;52.536;13.432;2022-09-16T06:21:41;16.90;52.30
21335;DHT22;10826;52.536;13.432;2022-09-16T06:24:12;16.90;52.00
21335;DHT22;10826;52.536;13.432;2022-09-16T06:26:41;17.00;51.80
21335;DHT22;10826;52.536;13.432;2022-09-16T06:29:08;17.00;51.60
21335;DHT22;10826;52.536;13.432;2022-09-16T06:31:36;17.00;51.60
21335;DHT22;10826;52.536;13.432;2022-09-16T06:34:04;17.00;51.50
21335;DHT22;10826;52.536;13.432;2022-09-16T06:36:38;17.10;51.40
21335;DHT22;10826;52.536;13.432;2022-09-16T06:39:04;17.10;51.20
21335;DHT22;10826;52.536;13.432;2022-09-16T06:41:32;17.10;51.20
21335;DHT22;10826;52.536;13.432;2022-09-16T06:44:03;17.10;51.00
21335;DHT22;10826;52.536;13.432;2022-09-16T06:46:29;17.20;51.10
21335;DHT22;10826;52.536;13.432;2022-09-16T06:48:56;17.20;50.80
21335;DHT22;10826;52.536;13.432;2022-09-16T06:51:25;17.30;50.80
21335;DHT22;10826;52.536;13.432;2022-09-16T06:53:57;17.30;50.60
21335;DHT22;10826;52.536;13.432;2022-09-16T06:56:26;17.30;50.50
21335;DHT22;10826;52.536;13.432;2022-09-16T06:58:56;17.40;50.20
21335;DHT22;10826;52.536;13.432;2022-09-16T07:01:24;17.50;49.90
21335;DHT22;10826;52.536;13.432;2022-09-16T07:03:53;17.60;49.60
21335;DHT22;10826;52.536;13.432;2022-09-16T07:06:22;17.60;49.30
21335;DHT22;10826;52.536;13.432;2022-09-16T07:08:49;17.70;49.20
21335;DHT22;10826;52.536;13.432;2022-09-16T07:11:18;17.80;49.20
21335;DHT22;10826;52.536;13.432;2022-09-16T07:13:47;17.80;50.00
21335;DHT22;10826;52.536;13.432;2022-09-16T07:16:18;18.00;50.20
21335;DHT22;10826;52.536;13.432;2022-09-16T07:18:56;18.00;49.90
21335;DHT22;10826;52.536;13.432;2022-09-16T07:21:26;18.10;49.30
21335;DHT22;10826;52.536;13.432;2022-09-16T07:23:57;18.20;49.40
21335;DHT22;10826;52.536;13.432;2022-09-16T07:26:28;18.30;49.30
21335;DHT22;10826;52.536;13.432;2022-09-16T07:28:58;18.40;49.10
21335;DHT22;10826;52.536;13.432;2022-09-16T07:31:28;18.50;48.00
21335;DHT22;10826;52.536;13.432;2022-09-16T07:33:59;18.60;47.10
21335;DHT22;10826;52.536;13.432;2022-09-16T07:36:31;18.60;46.60
21335;DHT22;10826;52.536;13.432;2022-09-16T07:38:59;18.60;46.40
21335;DHT22;10826;52.536;13.432;2022-09-16T07:41:28;18.60;46.60
21335;DHT22;10826;52.536;13.432;2022-09-16T07:43:57;18.70;46.50
21335;DHT22;10826;52.536;13.432;2022-09-16T07:46:26;18.70;46.20
21335;DHT22;10826;52.536;13.432;2022-09-16T07:48:54;18.70;46.20
21335;DHT22;10826;52.536;13.432;2022-09-16T07:51:24;18.70;46.30
21335;DHT22;10826;52.536;13.432;2022-09-16T07:53:53;18.70;45.90
21335;DHT22;10826;52.536;13.432;2022-09-16T07:56:22;18.70;45.70
21335;DHT22;10826;52.536;13.432;2022-09-16T07:58:51;18.70;45.70
21335;DHT22;10826;52.536;13.432;2022-09-16T08:01:19;18.80;45.70
21335;DHT22;10826;52.536;13.432;2022-09-16T08:03:46;18.80;45.50
21335;DHT22;10826;52.536;13.432;2022-09-16T08:06:18;18.90;45.30
21335;DHT22;10826;52.536;13.432;2022-09-16T08:08:46;18.90;44.90
21335;DHT22;10826;52.536;13.432;2022-09-16T08:11:14;19.00;44.80
21335;DHT22;10826;52.536;13.432;2022-09-16T08:13:41;19.00;44.90
21335;DHT22;10826;52.536;13.432;2022-09-16T08:16:12;19.10;45.00
21335;DHT22;10826;52.536;13.432;2022-09-16T08:18:40;19.20;44.40
21335;DHT22;10826;52.536;13.432;2022-09-16T08:21:09;19.30;44.30
21335;DHT22;10826;52.536;13.432;2022-09-16T08:23:44;19.40;44.10
21335;DHT22;10826;52.536;13.432;2022-09-16T08:26:11;19.40;43.90
21335;DHT22;10826;52.536;13.432;2022-09-16T08:28:40;19.60;43.60
21335;DHT22;10826;52.536;13.432;2022-09-16T08:31:07;19.70;43.10
21335;DHT22;10826;52.536;13.432;2022-09-16T08:33:34;19.80;42.80
21335;DHT22;10826;52.536;13.432;2022-09-16T08:38:42;20.00;42.60
21335;DHT22;10826;52.536;13.432;2022-09-16T08:44:01;20.20;42.00
21335;DHT22;10826;52.536;13.432;2022-09-16T08:49:44;20.20;42.70
21335;DHT22;10826;52.536;13.432;2022-09-16T08:52:34;20.30;41.70
21335;DHT22;10826;52.536;13.432;2022-09-16T08:57:44;20.30;41.30
21335;DHT22;10826;52.536;13.432;2022-09-16T09:00:25;20.40;41.20
21335;DHT22;10826;52.536;13.432;2022-09-16T09:05:58;20.50;40.60
21335;DHT22;10826;52.536;13.432;2022-09-16T09:14:03;20.30;39.70
21335;DHT22;10826;52.536;13.432;2022-09-16T09:19:51;20.30;39.70
21335;DHT22;10826;52.536;13.432;2022-09-16T09:26:03;20.40;39.40
21335;DHT22;10826;52.536;13.432;2022-09-16T09:40:51;20.70;37.40
21335;DHT22;10826;52.536;13.432;2022-09-16T09:43:31;20.70;36.80
21335;DHT22;10826;52.536;13.432;2022-09-16T09:46:11;20.60;37.00
21335;DHT22;10826;52.536;13.432;2022-09-16T09:49:14;20.60;36.30
21335;DHT22;10826;52.536;13.432;2022-09-16T09:51:53;20.70;36.00
21335;DHT22;10826;52.536;13.432;2022-09-16T09:54:28;20.60;35.60
21335;DHT22;10826;52.536;13.432;2022-09-16T09:57:38;20.60;35.30
21335;DHT22;10826;52.536;13.432;2022-09-16T10:00:15;20.70;35.30
21335;DHT22;10826;52.536;13.432;2022-09-16T10:02:44;20.60;35.40
21335;DHT22;10826;52.536;13.432;2022-09-16T10:07:51;20.60;34.70
21335;DHT22;10826;52.536;13.432;2022-09-16T10:10:24;20.60;34.90
21335;DHT22;10826;52.536;13.432;2022-09-16T10:12:52;20.60;34.50
21335;DHT22;10826;52.536;13.432;2022-09-16T10:15:27;20.70;34.30
21335;DHT22;10826;52.536;13.432;2022-09-16T10:17:57;20.70;34.00
21335;DHT22;10826;52.536;13.432;2022-09-16T10:20:36;20.70;35.60
21335;DHT22;10826;52.536;13.432;2022-09-16T10:23:24;20.90;36.30
21335;DHT22;10826;52.536;13.432;2022-09-16T10:26:17;21.10;37.00
21335;DHT22;10826;52.536;13.432;2022-09-16T10:29:00;21.20;36.00
21335;DHT22;10826;52.536;13.432;2022-09-16T10:31:44;21.40;35.80
21335;DHT22;10826;52.536;13.432;2022-09-16T10:34:32;21.50;35.50
21335;DHT22;10826;52.536;13.432;2022-09-16T10:37:15;21.70;33.80
21335;DHT22;10826;52.536;13.432;2022-09-16T10:39:57;21.70;33.50
21335;DHT22;10826;52.536;13.432;2022-09-16T10:42:30;21.60;34.00
21335;DHT22;10826;52.536;13.432;2022-09-16T10:45:08;21.60;34.00
21335;DHT22;10826;52.536;13.432;2022-09-16T10:47:45;21.60;33.70
21335;DHT22;10826;52.536;13.432;2022-09-16T10:50:21;21.60;33.50
21335;DHT22;10826;52.536;13.432;2022-09-16T10:52:51;21.70;33.60
21335;DHT22;10826;52.536;13.432;2022-09-16T10:55:31;21.70;32.80
21335;DHT22;10826;52.536;13.432;2022-09-16T10:58:07;21.70;32.40
21335;DHT22;10826;52.536;13.432;2022-09-16T11:00:48;21.70;32.30
21335;DHT22;10826;52.536;13.432;2022-09-16T11:09:44;21.90;32.80
21335;DHT22;10826;52.536;13.432;2022-09-16T11:15:22;22.30;32.20
21335;DHT22;10826;52.536;13.432;2022-09-16T11:18:11;22.40;31.70
21335;DHT22;10826;52.536;13.432;2022-09-16T11:27:03;22.50;30.90
21335;DHT22;10826;52.536;13.432;2022-09-16T11:29:52;22.40;30.90
21335;DHT22;10826;52.536;13.432;2022-09-16T11:38:46;22.10;31.10
21335;DHT22;10826;52.536;13.432;2022-09-16T11:41:43;22.00;31.60
21335;DHT22;10826;52.536;13.432;2022-09-16T11:47:30;21.80;31.40
21335;DHT22;10826;52.536;13.432;2022-09-16T11:50:37;21.80;31.50
21335;DHT22;10826;52.536;13.432;2022-09-16T11:53:25;21.80;31.50
21335;DHT22;10826;52.536;13.432;2022-09-16T11:56:07;21.80;31.30
21335;DHT22;10826;52.536;13.432;2022-09-16T12:02:09;21.80;31.40
21335;DHT22;10826;52.536;13.432;2022-09-16T12:05:02;21.80;31.10
21335;DHT22;10826;52.536;13.432;2022-09-16T12:11:18;21.80;30.90
21335;DHT22;10826;52.536;13.432;2022-09-16T12:14:30;21.80;30.90
21335;DHT22;10826;52.536;13.432;2022-09-16T12:17:11;21.70;30.90
21335;DHT22;10826;52.536;13.432;2022-09-16T12:19:51;21.70;31.30
21335;DHT22;10826;52.536;13.432;2022-09-16T12:25:50;21.70;30.50
21335;DHT22;10826;52.536;13.432;2022-09-16T12:28:56;21.60;30.70
21335;DHT22;10826;52.536;13.432;2022-09-16T12:34:25;21.40;30.10
21335;DHT22;10826;52.536;13.432;2022-09-16T12:40:00;21.30;30.00
21335;DHT22;10826;52.536;13.432;2022-09-16T12:42:58;21.30;29.90
21335;DHT22;10826;52.536;13.432;2022-09-16T12:46:15;21.30;30.00
21335;DHT22;10826;52.536;13.432;2022-09-16T13:01:23;21.20;30.20
21335;DHT22;10826;52.536;13.432;2022-09-16T13:03:57;21.20;30.30
21335;DHT22;10826;52.536;13.432;2022-09-16T13:06:45;21.10;30.60
21335;DHT22;10826;52.536;13.432;2022-09-16T13:09:29;21.20;30.70
21335;DHT22;10826;52.536;13.432;2022-09-16T13:12:02;21.20;30.20
21335;DHT22;10826;52.536;13.432;2022-09-16T13:17:10;21.20;29.90
21335;DHT22;10826;52.536;13.432;2022-09-16T13:19:51;21.20;30.30
21335;DHT22;10826;52.536;13.432;2022-09-16T13:22:36;21.20;29.90
21335;DHT22;10826;52.536;13.432;2022-09-16T13:25:27;21.20;29.80
21335;DHT22;10826;52.536;13.432;2022-09-16T13:28:19;21.20;29.40
21335;DHT22;10826;52.536;13.432;2022-09-16T13:34:01;21.20;29.30
21335;DHT22;10826;52.536;13.432;2022-09-16T13:36:38;21.10;29.20
21335;DHT22;10826;52.536;13.432;2022-09-16T13:39:12;21.20;29.00
21335;DHT22;10826;52.536;13.432;2022-09-16T13:41:46;21.30;29.30
21335;DHT22;10826;52.536;13.432;2022-09-16T13:49:49;21.50;27.80
21335;DHT22;10826;52.536;13.432;2022-09-16T13:52:32;21.50;28.20
21335;DHT22;10826;52.536;13.432;2022-09-16T13:55:02;21.60;28.60
21335;DHT22;10826;52.536;13.432;2022-09-16T14:00:14;21.70;28.20
21335;DHT22;10826;52.536;13.432;2022-09-16T14:06:23;21.80;28.70
21335;DHT22;10826;52.536;13.432;2022-09-16T14:09:25;21.80;28.50
21335;DHT22;10826;52.536;13.432;2022-09-16T14:14:37;21.70;28.30
21335;DHT22;10826;52.536;13.432;2022-09-16T14:17:12;21.70;28.50
21335;DHT22;10826;52.536;13.432;2022-09-16T14:19:41;21.70;28.40
21335;DHT22;10826;52.536;13.432;2022-09-16T14:22:16;21.60;28.50
21335;DHT22;10826;52.536;13.432;2022-09-16T14:24:50;21.70;28.30
21335;DHT22;10826;52.536;13.432;2022-09-16T14:27:29;21.70;28.00
21335;DHT22;10826;52.536;13.432;2022-09-16T14:30:12;21.80;27.70
21335;DHT22;10826;52.536;13.432;2022-09-16T14:32:43;21.80;27.50
21335;DHT22;10826;52.536;13.432;2022-09-16T14:35:26;21.90;27.10
21335;DHT22;10826;52.536;13.432;2022-09-16T14:38:00;22.00;26.80
21335;DHT22;10826;52.536;13.432;2022-09-16T14:40:29;22.00;27.00
21335;DHT22;10826;52.536;13.432;2022-09-16T14:43:15;22.00;26.60
21335;DHT22;10826;52.536;13.432;2022-09-16T14:45:48;22.00;26.50
21335;DHT22;10826;52.536;13.432;2022-09-16T14:48:19;22.10;26.60
21335;DHT22;10826;52.536;13.432;2022-09-16T14:50:50;22.10;26.70
21335;DHT22;10826;52.536;13.432;2022-09-16T14:53:31;22.20;26.40
21335;DHT22;10826;52.536;13.432;2022-09-16T14:56:03;22.30;26.30
21335;DHT22;10826;52.536;13.432;2022-09-16T14:58:31;22.30;26.00
21335;DHT22;10826;52.536;13.432;2022-09-16T15:01:08;22.30;25.80
21335;DHT22;10826;52.536;13.432;2022-09-16T15:04:07;22.30;25.50
21335;DHT22;10826;52.536;13.432;2022-09-16T15:06:44;22.30;25.10
21335;DHT22;10826;52.536;13.432;2022-09-16T15:12:22;22.30;25.20
21335;DHT22;10826;52.536;13.432;2022-09-16T15:14:51;22.30;25.10
21335;DHT22;10826;52.536;13.432;2022-09-16T15:17:20;22.30;25.10
21335;DHT22;10826;52.536;13.432;2022-09-16T15:19:56;22.30;25.30
21335;DHT22;10826;52.536;13.432;2022-09-16T15:22:25;22.30;25.50
21335;DHT22;10826;52.536;13.432;2022-09-16T15:24:55;22.30;25.20
21335;DHT22;10826;52.536;13.432;2022-09-16T15:27:26;22.20;25.20
21335;DHT22;10826;52.536;13.432;2022-09-16T15:29:59;22.10;25.10
21335;DHT22;10826;52.536;13.432;2022-09-16T15:32:43;22.10;25.00
21335;DHT22;10826;52.536;13.432;2022-09-16T15:37:53;22.00;25.10
21335;DHT22;10826;52.536;13.432;2022-09-16T15:40:30;22.00;25.30
21335;DHT22;10826;52.536;13.432;2022-09-16T15:43:20;22.00;25.50
21335;DHT22;10826;52.536;13.432;2022-09-16T15:46:21;21.90;25.70
21335;DHT22;10826;52.536;13.432;2022-09-16T15:48:59;21.80;25.60
21335;DHT22;10826;52.536;13.432;2022-09-16T15:51:44;21.80;25.90
21335;DHT22;10826;52.536;13.432;2022-09-16T15:54:20;21.80;25.90
21335;DHT22;10826;52.536;13.432;2022-09-16T15:57:08;21.70;26.00
21335;DHT22;10826;52.536;13.432;2022-09-16T16:00:03;21.70;26.10
21335;DHT22;10826;52.536;13.432;2022-09-16T16:02:42;21.60;26.00
21335;DHT22;10826;52.536;13.432;2022-09-16T16:05:20;21.40;26.40
21335;DHT22;10826;52.536;13.432;2022-09-16T16:07:50;21.30;26.80
21335;DHT22;10826;52.536;13.432;2022-09-16T16:10:24;21.20;26.90
21335;DHT22;10826;52.536;13.432;2022-09-16T16:12:57;21.10;27.20
21335;DHT22;10826;52.536;13.432;2022-09-16T16:15:33;21.00;27.40
21335;DHT22;10826;52.536;13.432;2022-09-16T16:18:02;21.00;27.60
21335;DHT22;10826;52.536;13.432;2022-09-16T16:20:32;20.80;27.60
21335;DHT22;10826;52.536;13.432;2022-09-16T16:22:59;20.80;27.80
21335;DHT22;10826;52.536;13.432;2022-09-16T16:25:26;20.70;28.00
21335;DHT22;10826;52.536;13.432;2022-09-16T16:27:52;20.60;28.10
21335;DHT22;10826;52.536;13.432;2022-09-16T16:30:18;20.60;28.20
21335;DHT22;10826;52.536;13.432;2022-09-16T16:32:46;20.60;28.30
21335;DHT22;10826;52.536;13.432;2022-09-16T16:35:13;20.60;28.40
21335;DHT22;10826;52.536;13.432;2022-09-16T16:37:39;20.50;28.40
21335;DHT22;10826;52.536;13.432;2022-09-16T16:40:06;20.50;28.50
21335;DHT22;10826;52.536;13.432;2022-09-16T16:42:33;20.40;28.50
21335;DHT22;10826;52.536;13.432;2022-09-16T16:45:00;20.40;28.60
21335;DHT22;10826;52.536;13.432;2022-09-16T16:47:26;20.40;28.80
21335;DHT22;10826;52.536;13.432;2022-09-16T16:49:52;20.50;28.80
21335;DHT22;10826;52.536;13.432;2022-09-16T16:52:18;20.40;28.70
21335;DHT22;10826;52.536;13.432;2022-09-16T16:54:44;20.40;28.90
21335;DHT22;10826;52.536;13.432;2022-09-16T16:57:11;20.40;29.10
21335;DHT22;10826;52.536;13.432;2022-09-16T16:59:37;20.30;29.30
21335;DHT22;10826;52.536;13.432;2022-09-16T17:02:02;20.30;29.40
21335;DHT22;10826;52.536;13.432;2022-09-16T17:04:29;20.30;29.60
21335;DHT22;10826;52.536;13.432;2022-09-16T17:06:55;20.30;29.80
21335;DHT22;10826;52.536;13.432;2022-09-16T17:09:22;20.20;29.90
21335;DHT22;10826;52.536;13.432;2022-09-16T17:11:56;20.20;29.90
21335;DHT22;10826;52.536;13.432;2022-09-16T17:14:25;20.10;30.00
21335;DHT22;10826;52.536;13.432;2022-09-16T17:16:54;19.90;30.00
21335;DHT22;10826;52.536;13.432;2022-09-16T17:19:24;19.90;30.10
21335;DHT22;10826;52.536;13.432;2022-09-16T17:21:52;19.80;30.20
21335;DHT22;10826;52.536;13.432;2022-09-16T17:24:18;19.70;30.20
21335;DHT22;10826;52.536;13.432;2022-09-16T17:26:45;19.70;30.30
21335;DHT22;10826;52.536;13.432;2022-09-16T17:29:12;19.60;30.30
21335;DHT22;10826;52.536;13.432;2022-09-16T17:31:39;19.60;30.20
21335;DHT22;10826;52.536;13.432;2022-09-16T17:34:08;19.50;30.30
21335;DHT22;10826;52.536;13.432;2022-09-16T17:36:38;19.40;30.20
21335;DHT22;10826;52.536;13.432;2022-09-16T17:39:10;19.40;30.40
21335;DHT22;10826;52.536;13.432;2022-09-16T17:41:42;19.30;30.60
21335;DHT22;10826;52.536;13.432;2022-09-16T17:44:12;19.30;30.80
21335;DHT22;10826;52.536;13.432;2022-09-16T17:46:39;19.20;31.00
21335;DHT22;10826;52.536;13.432;2022-09-16T17:49:14;19.20;31.30
21335;DHT22;10826;52.536;13.432;2022-09-16T17:51:42;19.10;31.60
21335;DHT22;10826;52.536;13.432;2022-09-16T17:54:09;19.10;31.80
21335;DHT22;10826;52.536;13.432;2022-09-16T17:56:36;19.00;32.00
21335;DHT22;10826;52.536;13.432;2022-09-16T17:59:02;19.00;32.20
21335;DHT22;10826;52.536;13.432;2022-09-16T18:01:28;18.90;32.50
21335;DHT22;10826;52.536;13.432;2022-09-16T18:03:55;18.90;32.80
21335;DHT22;10826;52.536;13.432;2022-09-16T18:06:24;18.90;33.10
21335;DHT22;10826;52.536;13.432;2022-09-16T18:08:54;18.80;33.20
21335;DHT22;10826;52.536;13.432;2022-09-16T18:11:20;18.80;33.50
21335;DHT22;10826;52.536;13.432;2022-09-16T18:13:51;18.70;33.70
21335;DHT22;10826;52.536;13.432;2022-09-16T18:16:20;18.80;33.80
21335;DHT22;10826;52.536;13.432;2022-09-16T18:18:49;18.70;34.10
21335;DHT22;10826;52.536;13.432;2022-09-16T18:21:18;18.70;34.30
21335;DHT22;10826;52.536;13.432;2022-09-16T18:23:46;18.70;34.40
21335;DHT22;10826;52.536;13.432;2022-09-16T18:26:15;18.70;34.50
21335;DHT22;10826;52.536;13.432;2022-09-16T18:28:44;18.70;34.60
21335;DHT22;10826;52.536;13.432;2022-09-16T18:31:14;18.70;35.30
21335;DHT22;10826;52.536;13.432;2022-09-16T18:33:42;18.70;34.70
21335;DHT22;10826;52.536;13.432;2022-09-16T18:36:14;18.70;34.70
21335;DHT22;10826;52.536;13.432;2022-09-16T18:38:41;18.70;35.50
21335;DHT22;10826;52.536;13.432;2022-09-16T18:41:15;18.70;35.90
21335;DHT22;10826;52.536;13.432;2022-09-16T18:43:54;18.70;36.30
21335;DHT22;10826;52.536;13.432;2022-09-16T18:46:24;18.80;36.10
21335;DHT22;10826;52.536;13.432;2022-09-16T18:48:52;18.80;35.80
21335;DHT22;10826;52.536;13.432;2022-09-16T18:51:25;18.90;35.90